createdAt,value
2022-12-05T00:04:43.348Z,31.50
2022-12-05T00:09:42.561Z,33.40
2022-12-05T00:14:40.787Z,41.80
2022-12-05T00:19:41.055Z,49.80
2022-12-05T00:24:39.221Z,45.70
2022-12-05T00:29:40.418Z,45.80
2022-12-05T00:34:38.601Z,113.10
2022-12-05T00:39:36.843Z,58.10
2022-12-05T00:44:37.115Z,60.10
2022-12-05T00:49:35.327Z,61.40
2022-12-05T00:54:34.561Z,109.80
2022-12-05T00:59:33.793Z,49.30
2022-12-05T01:04:33.006Z,39.10
2022-12-05T01:10:14.239Z,70.00
2022-12-05T01:14:31.368Z,98.10
2022-12-05T01:19:31.600Z,125.70
2022-12-05T01:24:30.809Z,44.10
2022-12-05T01:29:29.023Z,37.50
2022-12-05T01:34:28.349Z,28.00
2022-12-05T01:39:28.770Z,33.20
2022-12-05T01:44:28.093Z,30.20
2022-12-05T01:49:26.157Z,25.00
2022-12-05T01:54:25.184Z,67.10
2022-12-05T01:59:24.399Z,62.30
2022-12-05T02:04:23.647Z,82.30
2022-12-05T02:10:04.852Z,62.40
2022-12-05T02:14:21.010Z,58.20
2022-12-05T02:19:22.206Z,193.00
2022-12-05T02:24:20.392Z,169.20
2022-12-05T02:29:19.584Z,144.70
2022-12-05T02:34:17.782Z,130.20
2022-12-05T02:39:17.967Z,120.30
2022-12-05T02:44:18.192Z,85.70
2022-12-05T02:49:17.368Z,71.70
2022-12-05T02:54:16.577Z,66.00
2022-12-05T02:59:19.903Z,58.20
2022-12-05T03:04:13.064Z,60.60
2022-12-05T03:09:14.260Z,47.30
2022-12-05T03:14:14.468Z,44.50
2022-12-05T03:19:12.649Z,42.30
2022-12-05T03:24:11.815Z,48.50
2022-12-05T03:29:10.014Z,45.70
2022-12-05T03:34:09.194Z,49.60
2022-12-05T03:39:10.365Z,40.80
2022-12-05T03:44:08.578Z,45.00
2022-12-05T03:49:07.847Z,43.20
2022-12-05T03:54:08.111Z,35.90
2022-12-05T03:59:06.401Z,36.80
2022-12-05T04:04:04.690Z,28.30
2022-12-05T04:09:06.007Z,24.50
2022-12-05T04:14:03.303Z,24.70
2022-12-05T04:19:03.593Z,22.90
2022-12-05T04:24:00.892Z,22.90
2022-12-05T04:29:02.225Z,22.80
2022-12-05T04:34:00.541Z,21.50
2022-12-05T04:38:59.868Z,22.00
2022-12-05T04:44:00.185Z,18.90
2022-12-05T04:49:00.467Z,19.00
2022-12-05T04:53:57.760Z,17.80
2022-12-05T04:58:57.051Z,18.00
2022-12-05T05:03:56.442Z,17.30
2022-12-05T05:08:55.518Z,16.00
2022-12-05T05:13:54.822Z,16.50
2022-12-05T05:18:54.129Z,14.70
2022-12-05T05:23:53.432Z,16.10
2022-12-05T05:28:53.762Z,13.90
2022-12-05T05:33:51.945Z,19.70
2022-12-05T05:38:52.206Z,14.10
2022-12-05T05:43:51.498Z,13.20
2022-12-05T05:48:50.817Z,12.70
2022-12-05T05:53:49.119Z,13.30
2022-12-05T05:58:49.436Z,12.70
2022-12-05T06:03:48.920Z,12.30
2022-12-05T06:08:46.898Z,12.00
2022-12-05T06:13:45.264Z,14.80
2022-12-05T06:18:46.381Z,13.50
2022-12-05T06:23:45.699Z,12.30
2022-12-05T06:28:44.996Z,12.60
2022-12-05T06:33:44.292Z,11.90
2022-12-05T06:38:43.603Z,12.00
2022-12-05T06:43:40.912Z,12.00
2022-12-05T06:48:41.239Z,12.00
2022-12-05T06:53:40.542Z,10.70
2022-12-05T06:58:39.832Z,11.50
2022-12-05T07:03:39.149Z,13.80
2022-12-05T07:08:39.456Z,11.70
2022-12-05T07:13:38.841Z,11.60
2022-12-05T07:18:36.958Z,13.00
2022-12-05T07:23:37.318Z,10.70
2022-12-05T07:28:35.654Z,10.50
2022-12-05T07:33:34.739Z,11.40
2022-12-05T07:38:35.081Z,9.50
2022-12-05T07:43:33.383Z,11.00
2022-12-05T07:48:33.691Z,9.60
2022-12-05T07:53:32.074Z,9.40
2022-12-05T07:58:31.212Z,9.40
2022-12-05T08:03:30.338Z,10.50
2022-12-05T08:08:30.606Z,7.40
2022-12-05T08:13:29.879Z,7.00
2022-12-05T08:18:30.156Z,7.70
2022-12-05T08:23:27.465Z,7.80
2022-12-05T08:28:27.754Z,7.30
2022-12-05T08:33:27.035Z,6.00
2022-12-05T08:38:26.293Z,4.20
2022-12-05T08:43:25.585Z,5.00
2022-12-05T08:48:29.001Z,8.10
2022-12-05T08:53:23.032Z,9.90
2022-12-05T08:58:22.392Z,9.40
2022-12-05T09:03:21.521Z,8.80
2022-12-05T09:08:20.700Z,11.70
2022-12-05T09:13:20.054Z,78.90
2022-12-05T09:18:20.211Z,65.50
2022-12-05T09:23:18.762Z,61.00
2022-12-05T09:28:18.632Z,120.80
2022-12-05T09:33:16.934Z,113.90
2022-12-05T09:38:16.260Z,122.60
2022-12-05T09:43:15.549Z,108.90
2022-12-05T09:48:14.840Z,159.20
2022-12-05T09:53:15.145Z,90.70
2022-12-05T09:58:13.447Z,97.70
2022-12-05T10:03:13.734Z,82.30
2022-12-05T10:08:12.091Z,65.20
2022-12-05T10:13:12.257Z,63.40
2022-12-05T10:18:10.565Z,64.20
2022-12-05T10:23:18.775Z,59.70
2022-12-05T10:28:09.084Z,53.80
2022-12-05T10:33:09.796Z,52.10
2022-12-05T10:38:07.618Z,49.40
2022-12-05T10:43:07.987Z,30.70
2022-12-05T10:48:08.108Z,37.40
2022-12-05T10:53:07.426Z,31.80
2022-12-05T10:58:04.734Z,29.00
2022-12-05T11:03:05.050Z,30.10
2022-12-05T11:08:04.390Z,25.60
2022-12-05T11:13:01.675Z,24.10
2022-12-05T11:18:03.051Z,20.20
2022-12-05T11:23:01.189Z,18.40
2022-12-05T11:28:01.700Z,24.20
2022-12-05T11:32:59.665Z,22.00
2022-12-05T11:37:58.766Z,18.30
2022-12-05T11:43:05.234Z,23.10
2022-12-05T11:47:58.353Z,13.40
2022-12-05T11:52:56.635Z,14.30
2022-12-05T11:57:57.956Z,13.40
2022-12-05T12:02:55.280Z,15.00
2022-12-05T12:07:56.660Z,13.30
2022-12-05T12:12:54.734Z,12.60
2022-12-05T12:17:53.031Z,11.10
2022-12-05T12:22:52.349Z,9.40
2022-12-05T12:27:52.672Z,9.90
2022-12-05T12:32:50.992Z,7.20
2022-12-05T12:37:51.323Z,6.10
2022-12-05T12:42:50.649Z,7.40
2022-12-05T12:47:48.968Z,4.60
2022-12-05T12:52:48.280Z,4.80
2022-12-05T12:57:49.645Z,5.40
2022-12-05T13:02:47.747Z,5.80
2022-12-05T13:07:46.154Z,6.30
2022-12-05T13:12:46.321Z,4.40
2022-12-05T13:17:44.599Z,4.90
2022-12-05T13:22:43.880Z,4.50
2022-12-05T13:27:43.159Z,3.40
2022-12-05T13:32:42.443Z,3.30
2022-12-05T13:37:41.720Z,3.10
2022-12-05T13:42:42.994Z,2.90
2022-12-05T13:47:40.282Z,3.30
2022-12-05T13:52:40.574Z,3.60
2022-12-05T13:57:40.865Z,4.40
2022-12-05T14:02:38.252Z,3.60
2022-12-05T14:07:37.400Z,3.60
2022-12-05T14:12:36.562Z,3.10
2022-12-05T14:17:36.691Z,3.10
2022-12-05T14:22:34.843Z,2.90
2022-12-05T14:27:35.145Z,2.70
2022-12-05T14:32:33.419Z,2.90
2022-12-05T14:37:34.772Z,2.70
2022-12-05T14:42:33.852Z,2.70
2022-12-05T14:47:31.131Z,2.60
2022-12-05T14:52:30.440Z,2.20
2022-12-05T14:57:30.740Z,2.90
2022-12-05T15:02:30.050Z,2.10
2022-12-05T15:07:29.343Z,1.90
2022-12-05T15:12:29.649Z,1.90
2022-12-05T15:17:27.929Z,2.10
2022-12-05T15:22:27.228Z,2.00
2022-12-05T15:27:26.501Z,2.30
2022-12-05T15:32:25.802Z,2.30
2022-12-05T15:37:26.103Z,1.80
2022-12-05T15:42:29.306Z,2.50
2022-12-05T15:47:23.581Z,2.30
2022-12-05T15:52:23.909Z,2.60
2022-12-05T15:57:23.232Z,2.70
2022-12-05T16:02:21.557Z,2.60
2022-12-05T16:07:19.656Z,2.60
2022-12-05T16:12:19.994Z,3.00
2022-12-05T16:17:18.300Z,3.00
2022-12-05T16:22:17.496Z,2.60
2022-12-05T16:27:17.725Z,3.00
2022-12-05T16:32:16.041Z,2.90
2022-12-05T16:37:16.190Z,2.40
2022-12-05T16:42:15.499Z,2.90
2022-12-05T16:47:15.018Z,3.10
2022-12-05T16:52:14.973Z,3.00
2022-12-05T16:57:15.362Z,2.90
2022-12-05T17:02:11.967Z,3.20
2022-12-05T17:07:11.651Z,3.10
2022-12-05T17:12:10.982Z,3.20
2022-12-05T17:17:09.427Z,2.70
2022-12-05T17:22:09.527Z,3.10
2022-12-05T17:27:07.899Z,2.80
2022-12-05T17:32:07.140Z,2.60
2022-12-05T17:37:07.900Z,2.90
2022-12-05T17:42:06.559Z,2.80
2022-12-05T17:47:08.265Z,2.90
2022-12-05T17:52:22.415Z,2.40
2022-12-05T17:57:04.315Z,3.00
2022-12-05T18:02:03.267Z,2.90
2022-12-05T18:07:01.580Z,3.20
2022-12-05T18:12:02.203Z,3.20
2022-12-05T18:17:00.270Z,3.10
2022-12-05T18:22:00.437Z,3.40
2022-12-05T18:26:58.589Z,3.20
2022-12-05T18:31:59.690Z,3.70
2022-12-05T18:36:57.193Z,3.40
2022-12-05T18:41:56.493Z,3.00
2022-12-05T18:46:55.780Z,2.90
2022-12-05T18:51:56.002Z,2.50
2022-12-05T18:56:54.277Z,3.00
2022-12-05T19:01:53.532Z,3.20
2022-12-05T19:06:52.785Z,3.60
2022-12-05T19:11:52.078Z,5.50
2022-12-05T19:16:56.459Z,4.40
2022-12-05T19:21:51.565Z,7.20
2022-12-05T19:26:50.859Z,6.10
2022-12-05T19:31:50.228Z,69.30
2022-12-05T19:36:49.354Z,109.10
2022-12-05T19:41:47.636Z,127.70
2022-12-05T19:46:47.996Z,123.30
2022-12-05T19:51:48.175Z,108.40
2022-12-05T19:56:45.339Z,90.80
2022-12-05T20:01:44.209Z,80.70
2022-12-05T20:06:43.372Z,74.20
2022-12-05T20:11:43.968Z,102.80
2022-12-05T20:16:41.815Z,117.40
2022-12-05T20:21:40.961Z,103.40
2022-12-05T20:26:42.445Z,106.50
2022-12-05T20:31:40.976Z,174.20
2022-12-05T20:36:40.051Z,135.70
2022-12-05T20:41:40.308Z,129.10
2022-12-05T20:46:38.302Z,190.50
2022-12-05T20:51:38.440Z,290.90
2022-12-05T20:56:38.945Z,311.30
2022-12-05T21:01:36.096Z,210.40
2022-12-05T21:06:34.524Z,225.40
2022-12-05T21:11:33.775Z,168.60
2022-12-05T21:16:33.102Z,119.10
2022-12-05T21:21:31.920Z,97.00
2022-12-05T21:26:32.387Z,76.80
2022-12-05T21:31:30.796Z,75.60
2022-12-05T21:36:30.656Z,64.20
2022-12-05T21:41:29.955Z,56.40
2022-12-05T21:46:30.326Z,43.30
2022-12-05T21:51:26.453Z,76.30
2022-12-05T21:56:26.748Z,110.30
2022-12-05T22:01:26.073Z,148.00
2022-12-05T22:06:25.274Z,122.00
2022-12-05T22:11:25.444Z,100.10
2022-12-05T22:16:29.008Z,76.50
2022-12-05T22:21:22.825Z,66.50
2022-12-05T22:26:22.995Z,55.70
2022-12-05T22:31:21.195Z,44.90
2022-12-05T22:36:21.377Z,40.70
2022-12-05T22:41:19.542Z,35.20
2022-12-05T22:46:19.804Z,29.00
2022-12-05T22:51:19.032Z,23.00
2022-12-05T22:56:18.216Z,21.40
2022-12-05T23:01:19.371Z,17.70
2022-12-05T23:06:16.551Z,16.80
2022-12-05T23:11:14.714Z,14.40
2022-12-05T23:16:15.034Z,13.60
2022-12-05T23:21:12.049Z,13.90
2022-12-05T23:26:12.239Z,11.40
2022-12-05T23:31:11.451Z,12.40
2022-12-05T23:36:11.628Z,11.00
2022-12-05T23:41:10.832Z,31.10
2022-12-05T23:46:08.978Z,115.20
2022-12-05T23:51:10.153Z,77.00
2022-12-05T23:56:08.317Z,61.50
